Durango, CO

6:33 PM MDT on June 29, 2015 (GMT -0600)
Falls Creek Ranch | | Change Station
CLOSE
Current Station
Personal Weather Station
Location: Durango, CO
Elevation: 7560 ft
Nearby Weather Stations

Elev 7560 ft 37.29 °N, 107.87 °W | Updated 1 minute ago

Mostly Cloudy
Mostly Cloudy
82.2 °F
Feels Like 81 °F
N
0.0
Wind Variable Wind from SSE
Gusts 5.0 mph

Today
High -- | Low -- °F
--% Chance of Precip.
Yesterday
High -- | Low -- °F
Precip. -- in
5:53 AM 8:35 PM
Waxing Gibbous, 95% visible
Pressure 29.94 in
Visibility 10.0 miles
Clouds Clear
Heat Index 81 °F
Dew Point 50 °F
Humidity 33%
Rainfall 0.00 in
Snow Depth Not available.
UV 3 out of 12
Pollen 4.40 out of 12
Air Quality Not available.
Flu Activity Sporadic
METAR KDRO 292353Z AUTO 27007KT 10SM CLR 28/09 A3020 RMK AO2 LTG DSNT NE AND W SLP137 60012 T02830089 10317 20206 56014

More Conditions Fewer Conditions

Pressure 29.94 in
Visibility 10.0 miles
Clouds Clear
Heat Index 81 °F
Dew Point 50 °F
Humidity 33%
Rainfall 0.00 in
Snow Depth Not available.
UV 3 out of 12
Pollen 4.40 out of 12
Air Quality Not available.
Flu Activity Sporadic
METAR KDRO 292353Z AUTO 27007KT 10SM CLR 28/09 A3020 RMK AO2 LTG DSNT NE AND W SLP137 60012 T02830089 10317 20206 56014

More Conditions Fewer Conditions

Nowcast | as of 6:30 PM MDT on June 29, 2015

At 629 PM MDT...Doppler radar indicated a line of showers and thunderstorms...9 miles northeast of Durango moving southwest at 20 mph. Expect brief heavy rain...small hail and some gusty surface winds as these storms move through the area. Locations impacted include... Durango...Bayfield...Ignacio...Oxford...Vallecito...Trimble and Falfa.

×

10-Day Weather Forecast

×

Almanac

Astronomy

Jun. 29, 2015 Rise Set
Actual Time
Civil Twilight
Nautical Twilight
Astronomical Twilight
Moon
Length of Visible Light
Length of Day
Tomorrow will be .
, % of the Moon is Illuminated

Today's Extremes

State Highs State Lows

Community

WunderPhotos

Upload Photos

1,833,903 photos uploaded!

WunderBlogs® & News

Nearby

Air Quality

  Air Quality AQ Index Pollutant
Not available.

Snow Depth

Station Depth Elevation

Earthquake Activity

City Distance Mag. Time & Date
Minimum magnitude displayed is 2.5.

Coastal Water Temperatures

Place Temperature

Stations

Nearby Weather Stations

Station Location Temp. Windchill Dew Point Humidity Wind Precip. Elev Updated Type